Time;durP1;ratioP1;P1;durP2;ratioP2;P2;SDS_P1;SDS_P2;PMS_P1;PMS_P2;Temp;Humidity;BMP_temperature;BMP_pressure;BME280_temperature;BME280_humidity;BME280_pressure;Samples;Min_cycle;Max_cycle;Signal;HPM_P1;HPM_P2
2022/12/26 00:02:24;;;;;;;21.60;8.90;;;;;;;9.55;100.00;101053.84;5222013;28;20280;-84
2022/12/26 00:04:55;;;;;;;22.95;9.77;;;;;;;9.52;100.00;101051.47;5222271;28;20018;-84
2022/12/26 00:07:25;;;;;;;25.00;10.32;;;;;;;9.52;100.00;101062.19;5223348;28;20057;-84
2022/12/26 00:09:55;;;;;;;24.73;10.57;;;;;;;9.50;100.00;101069.56;5222856;28;20029;-84
2022/12/26 00:12:26;;;;;;;26.33;11.57;;;;;;;9.52;100.00;101081.78;5223278;28;20166;-83
2022/12/26 00:14:56;;;;;;;30.40;11.50;;;;;;;9.53;100.00;101082.63;5222013;28;20017;-83
2022/12/26 00:17:27;;;;;;;24.98;10.13;;;;;;;9.54;100.00;101092.34;5222632;28;20065;-83
2022/12/26 00:19:57;;;;;;;29.63;11.20;;;;;;;9.54;100.00;101090.53;5231918;28;20025;-83
2022/12/26 00:22:28;;;;;;;30.35;11.68;;;;;;;9.56;100.00;101096.56;5220778;28;20025;-84
2022/12/26 00:24:58;;;;;;;24.80;11.13;;;;;;;9.59;100.00;101106.97;5215887;28;20108;-82
2022/12/26 00:27:29;;;;;;;32.05;12.70;;;;;;;9.59;100.00;101104.28;5212261;28;20025;-82
2022/12/26 00:29:59;;;;;;;29.33;13.75;;;;;;;9.60;100.00;101087.22;5211850;28;20025;-82
2022/12/26 00:32:30;;;;;;;38.80;14.85;;;;;;;9.65;100.00;101105.50;5212909;28;20029;-82
2022/12/26 00:35:00;;;;;;;35.63;15.05;;;;;;;9.68;100.00;101115.06;5199800;28;20060;-81
2022/12/26 00:37:30;;;;;;;36.03;15.02;;;;;;;9.71;100.00;101120.97;5211454;28;20072;-82
2022/12/26 00:40:02;;;;;;;37.30;16.95;;;;;;;9.74;100.00;101109.06;5210545;28;20533;-82
2022/12/26 00:42:32;;;;;;;36.78;15.93;;;;;;;9.73;100.00;101105.56;5211692;28;20029;-82
2022/12/26 00:45:03;;;;;;;34.40;15.82;;;;;;;9.76;100.00;101125.84;5205091;28;20037;-81
2022/12/26 00:47:33;;;;;;;36.55;15.90;;;;;;;9.78;100.00;101116.66;5205259;28;20037;-82
2022/12/26 00:50:04;;;;;;;39.25;17.40;;;;;;;9.76;100.00;101112.47;5205185;28;20062;-81
2022/12/26 00:52:35;;;;;;;39.65;17.08;;;;;;;9.82;100.00;101123.41;5204814;28;20037;-81
2022/12/26 00:55:06;;;;;;;43.67;17.10;;;;;;;9.82;100.00;101117.19;5204992;28;20036;-81
2022/12/26 00:57:36;;;;;;;36.30;16.05;;;;;;;9.82;100.00;101128.75;5205315;28;20037;-81
2022/12/26 01:00:07;;;;;;;35.40;16.08;;;;;;;9.83;100.00;101126.91;5206710;28;20471;-81
2022/12/26 01:02:38;;;;;;;38.80;16.77;;;;;;;9.81;100.00;101126.25;5204256;28;20076;-82
2022/12/26 01:05:10;;;;;;;36.17;17.15;;;;;;;9.80;100.00;101128.06;5205787;28;20021;-81
2022/12/26 01:07:40;;;;;;;38.35;16.63;;;;;;;9.80;100.00;101127.25;5210106;28;20029;-80
2022/12/26 01:10:12;;;;;;;39.90;16.67;;;;;;;9.77;100.00;101135.56;5210631;28;20029;-81
2022/12/26 01:12:42;;;;;;;35.90;16.88;;;;;;;9.73;100.00;101131.50;5205882;28;20512;-81
2022/12/26 01:15:13;;;;;;;39.10;16.80;;;;;;;9.80;100.00;101119.19;5204925;28;20069;-81
2022/12/26 01:17:43;;;;;;;36.25;16.02;;;;;;;9.81;100.00;101126.25;5206002;28;20036;-81
2022/12/26 01:20:14;;;;;;;36.08;16.00;;;;;;;9.83;100.00;101130.44;5214512;28;20452;-81
2022/12/26 01:22:44;;;;;;;47.17;18.17;;;;;;;9.85;100.00;101122.25;5204704;28;20052;-81
2022/12/26 01:25:15;;;;;;;38.58;16.60;;;;;;;9.82;100.00;101114.50;5205907;28;20112;-80
2022/12/26 01:27:45;;;;;;;35.85;15.45;;;;;;;9.74;100.00;101111.75;5204121;28;20017;-81
2022/12/26 01:30:17;;;;;;;32.47;14.90;;;;;;;9.78;100.00;101124.69;5205330;28;20176;-81
2022/12/26 01:32:47;;;;;;;35.30;15.70;;;;;;;9.74;100.00;101128.69;5202704;28;20115;-81
2022/12/26 01:35:18;;;;;;;36.33;16.02;;;;;;;9.72;100.00;101122.63;5193005;28;20051;-82
2022/12/26 01:37:48;;;;;;;34.50;15.02;;;;;;;9.70;100.00;101130.00;5204745;28;20040;-82
2022/12/26 01:40:19;;;;;;;32.10;14.57;;;;;;;9.70;100.00;101139.88;5206995;28;20029;-82
2022/12/26 01:42:49;;;;;;;30.85;13.93;;;;;;;9.66;100.00;101143.84;5210038;28;20032;-81
2022/12/26 01:45:25;;;;;;;36.90;14.82;;;;;;;9.63;100.00;101141.47;5210205;28;20033;-81
2022/12/26 01:48:04;;;;;;;30.63;13.43;;;;;;;9.55;100.00;101144.91;5209856;28;20032;-82
2022/12/26 01:50:57;;;;;;;32.08;14.20;;;;;;;9.59;100.00;101154.34;5209188;28;20030;-82
2022/12/26 01:53:35;;;;;;;25.77;12.77;;;;;;;9.52;100.00;101145.22;5210218;28;20052;-81
2022/12/26 01:56:20;;;;;;;24.25;12.52;;;;;;;9.46;100.00;101159.22;5211003;28;20033;-81
2022/12/26 01:59:00;;;;;;;30.92;12.82;;;;;;;9.44;100.00;101140.63;5209850;28;20386;-82
2022/12/26 02:01:34;;;;;;;27.02;12.98;;;;;;;9.43;100.00;101144.28;5210700;28;20030;-82
2022/12/26 02:07:03;;;;;;;22.92;11.23;;;;;;;9.29;100.00;101151.03;5210377;28;20034;-82
2022/12/26 02:09:34;;;;;;;24.65;11.90;;;;;;;9.20;100.00;101149.25;5211216;28;20021;-81
2022/12/26 02:12:20;;;;;;;23.25;12.07;;;;;;;9.11;100.00;101130.56;5211638;28;20029;-80
2022/12/26 02:14:51;;;;;;;27.30;13.27;;;;;;;9.04;100.00;101136.50;5209648;28;20359;-81
2022/12/26 02:17:24;;;;;;;24.88;12.55;;;;;;;8.99;100.00;101154.00;5211481;28;20044;-82
2022/12/26 02:20:09;;;;;;;26.95;11.90;;;;;;;8.96;100.00;101157.81;5220184;28;20110;-81
2022/12/26 02:23:31;;;;;;;24.33;12.75;;;;;;;8.91;100.00;101154.72;5211342;28;20037;-82
2022/12/26 02:26:33;;;;;;;29.27;13.57;;;;;;;8.89;100.00;101156.72;5210987;28;20026;-81
2022/12/26 02:29:39;;;;;;;27.98;11.93;;;;;;;8.92;100.00;101155.56;5211379;28;20033;-82
2022/12/26 02:32:24;;;;;;;28.30;12.57;;;;;;;8.86;100.00;101173.06;5210928;28;20093;-80
2022/12/26 02:35:16;;;;;;;25.55;11.23;;;;;;;8.84;100.00;101168.88;5210132;28;20034;-82
2022/12/26 02:38:22;;;;;;;26.50;11.98;;;;;;;8.81;100.00;101168.16;5211006;28;20046;-81
2022/12/26 02:41:14;;;;;;;24.40;11.17;;;;;;;8.79;100.00;101172.81;5155102;28;20045;-81
2022/12/26 02:43:50;;;;;;;23.02;11.10;;;;;;;8.80;100.00;101168.31;5209518;28;20030;-82
2022/12/26 02:47:03;;;;;;;24.27;11.80;;;;;;;8.76;100.00;101177.59;5209183;28;20040;-80
2022/12/26 03:15:01;;;;;;;36.28;17.25;;;;;;;8.75;100.00;101151.84;5210336;28;20029;-80
2022/12/26 03:17:41;;;;;;;34.65;15.80;;;;;;;8.77;100.00;101160.56;5210759;28;20108;-82
2022/12/26 03:20:26;;;;;;;42.53;17.23;;;;;;;8.78;100.00;101159.56;5220298;28;20239;-82
2022/12/26 03:23:02;;;;;;;33.28;15.85;;;;;;;8.81;100.00;101153.94;5210365;28;20026;-81
2022/12/26 03:28:34;;;;;;;31.00;14.23;;;;;;;8.76;100.00;101161.56;5216298;28;20406;-81
2022/12/26 03:31:08;;;;;;;30.95;13.32;;;;;;;8.73;100.00;101164.50;5219135;28;20022;-80
2022/12/26 03:37:06;;;;;;;24.47;12.40;;;;;;;8.83;100.00;101159.97;5223591;28;20057;-81
2022/12/26 04:44:41;;;;;;;8.82;4.30;;;;;;;9.03;100.00;101169.59;5213872;28;20033;-79
2022/12/26 04:47:12;;;;;;;7.63;3.58;;;;;;;9.06;100.00;101168.47;5222960;28;20025;-79
2022/12/26 04:55:24;;;;;;;8.25;4.43;;;;;;;9.14;100.00;101157.03;5215640;28;20029;-80
2022/12/26 04:57:55;;;;;;;13.77;4.93;;;;;;;9.18;100.00;101161.06;5211581;28;20109;-81
2022/12/26 05:00:27;;;;;;;12.23;4.15;;;;;;;9.14;100.00;101149.00;5212145;28;20361;-80
2022/12/26 05:11:32;;;;;;;8.00;4.20;;;;;;;9.17;100.00;101146.84;5213043;28;20032;-81
2022/12/26 05:14:03;;;;;;;6.90;4.38;;;;;;;9.19;100.00;101133.34;5197800;28;20029;-81
2022/12/26 05:30:38;;;;;;;9.15;3.95;;;;;;;9.30;100.00;101139.31;5210928;28;20029;-80
2022/12/26 05:35:58;;;;;;;8.13;4.10;;;;;;;9.30;100.00;101158.06;5205464;28;20556;-81
2022/12/26 05:38:28;;;;;;;8.00;4.60;;;;;;;9.38;100.00;101156.44;5205703;28;20033;-80
2022/12/26 05:40:58;;;;;;;7.30;4.25;;;;;;;9.42;100.00;101155.16;5204218;28;20013;-81
2022/12/26 05:43:29;;;;;;;8.52;3.85;;;;;;;9.43;100.00;101156.84;5204534;28;20017;-80
2022/12/26 05:45:59;;;;;;;22.48;12.75;;;;;;;9.49;100.00;101170.47;5205588;28;20108;-81
2022/12/26 05:48:30;;;;;;;5.97;4.00;;;;;;;9.51;100.00;101183.72;5205197;28;20021;-80
2022/12/26 05:51:02;;;;;;;8.93;4.40;;;;;;;9.49;100.00;101181.19;5204168;28;20032;-80
2022/12/26 05:53:33;;;;;;;6.63;4.53;;;;;;;9.49;100.00;101191.06;5204763;28;20028;-80
2022/12/26 05:56:06;;;;;;;10.30;5.28;;;;;;;9.57;100.00;101196.50;5204634;28;20345;-80
2022/12/26 05:58:37;;;;;;;9.70;6.32;;;;;;;9.60;100.00;101190.84;5205274;28;20401;-81
2022/12/26 06:01:17;;;;;;;10.77;4.57;;;;;;;9.66;100.00;101195.59;5204650;28;20033;-81
2022/12/26 06:03:50;;;;;;;7.78;4.13;;;;;;;9.71;100.00;101182.56;5206005;28;20045;-81
2022/12/26 06:06:22;;;;;;;8.35;4.00;;;;;;;9.73;100.00;101175.22;5206778;28;20029;-81
2022/12/26 06:08:54;;;;;;;10.82;4.65;;;;;;;9.65;100.00;101175.16;5205752;28;20021;-82
2022/12/26 06:11:25;;;;;;;12.27;4.00;;;;;;;9.65;100.00;101177.00;5205112;28;20017;-82
2022/12/26 06:13:55;;;;;;;9.75;4.53;;;;;;;9.65;100.00;101177.00;5205773;28;20394;-81
2022/12/26 06:16:26;;;;;;;7.85;4.45;;;;;;;9.72;100.00;101181.56;5206178;28;20059;-81
2022/12/26 06:18:57;;;;;;;6.63;4.40;;;;;;;9.75;100.00;101194.69;5208748;28;20486;-81
2022/12/26 06:21:27;;;;;;;9.98;4.57;;;;;;;9.77;100.00;101189.16;5211554;28;20087;-81
2022/12/26 06:23:58;;;;;;;7.40;4.10;;;;;;;9.79;100.00;101190.72;5205574;28;20030;-81
2022/12/26 06:26:28;;;;;;;10.70;4.30;;;;;;;9.72;100.00;101196.81;5205864;28;20021;-80
2022/12/26 06:28:59;;;;;;;6.07;4.00;;;;;;;9.67;100.00;101204.47;5206734;28;20033;-82
2022/12/26 06:31:30;;;;;;;11.43;4.75;;;;;;;9.65;100.00;101207.31;5206204;28;20064;-83
2022/12/26 06:34:00;;;;;;;9.07;5.18;;;;;;;9.70;100.00;101202.34;5207062;28;20052;-84
2022/12/26 06:36:31;;;;;;;8.63;4.28;;;;;;;9.70;100.00;101217.56;5207477;28;20029;-82
2022/12/26 06:39:02;;;;;;;9.93;4.53;;;;;;;9.63;100.00;101208.44;5206431;28;20467;-83
2022/12/26 06:41:32;;;;;;;6.53;4.03;;;;;;;9.58;100.00;101212.41;5207249;28;20033;-83
2022/12/26 06:44:03;;;;;;;9.10;4.30;;;;;;;9.60;100.00;101210.44;5208992;28;20478;-83
2022/12/26 06:46:33;;;;;;;5.80;3.90;;;;;;;9.64;100.00;101215.47;5209640;28;20049;-83
2022/12/26 06:49:05;;;;;;;7.65;4.32;;;;;;;9.65;100.00;101223.38;5209341;28;20029;-83
2022/12/26 06:51:35;;;;;;;14.27;5.95;;;;;;;9.63;100.00;101219.16;5210695;28;20030;-83
2022/12/26 06:54:06;;;;;;;9.00;4.05;;;;;;;9.65;100.00;101226.06;5209573;28;20074;-82
2022/12/26 06:56:36;;;;;;;9.88;3.78;;;;;;;9.60;100.00;101223.81;5209758;28;20622;-81
2022/12/26 06:59:09;;;;;;;13.10;3.97;;;;;;;9.59;100.00;101226.66;5208530;28;20044;-81
2022/12/26 07:01:40;;;;;;;9.48;4.10;;;;;;;9.65;100.00;101230.56;5208452;28;20017;-79
2022/12/26 07:04:11;;;;;;;8.00;3.20;;;;;;;9.70;100.00;101230.97;5209594;28;20017;-80
2022/12/26 07:06:42;;;;;;;4.63;2.60;;;;;;;9.76;100.00;101220.47;5209926;28;20129;-81
2022/12/26 07:09:15;;;;;;;3.88;2.97;;;;;;;9.77;100.00;101219.47;5210491;28;20052;-82
2022/12/26 07:11:48;;;;;;;5.72;2.72;;;;;;;9.75;100.00;101212.59;5208816;28;20029;-81
2022/12/26 07:14:19;;;;;;;14.55;3.22;;;;;;;9.71;100.00;101211.22;5209332;28;20048;-80
2022/12/26 07:16:49;;;;;;;6.20;2.45;;;;;;;9.68;100.00;101206.97;5209172;28;20116;-81
2022/12/26 07:19:20;;;;;;;4.22;2.42;;;;;;;9.65;100.00;101212.66;5214847;28;20500;-81
2022/12/26 07:21:50;;;;;;;7.15;3.03;;;;;;;9.65;100.00;101225.22;5211334;28;20031;-81
2022/12/26 07:24:21;;;;;;;4.20;2.15;;;;;;;9.62;100.00;101222.81;5209472;28;20032;-81
2022/12/26 07:26:52;;;;;;;4.53;2.20;;;;;;;9.62;100.00;101218.31;5204099;28;20034;-81
2022/12/26 07:29:23;;;;;;;4.85;2.00;;;;;;;9.59;100.00;101230.19;5193777;28;20018;-81
2022/12/26 07:31:53;;;;;;;4.68;1.60;;;;;;;9.58;100.00;101230.31;5206520;28;20037;-80
2022/12/26 07:34:24;;;;;;;7.32;1.80;;;;;;;9.56;100.00;101235.00;5208337;28;20060;-81
2022/12/26 07:36:54;;;;;;;4.57;1.80;;;;;;;9.53;100.00;101224.56;5208461;28;20056;-81
2022/12/26 07:39:25;;;;;;;2.50;1.85;;;;;;;9.46;100.00;101229.69;5206832;28;20589;-81
2022/12/26 07:41:58;;;;;;;4.07;2.10;;;;;;;9.39;100.00;101236.66;5209063;28;20053;-81
2022/12/26 07:44:30;;;;;;;6.45;1.80;;;;;;;9.36;100.00;101234.25;5208501;28;20017;-81
2022/12/26 07:47:01;;;;;;;6.15;2.35;;;;;;;9.36;100.00;101236.94;5208146;28;20041;-80
2022/12/26 07:49:32;;;;;;;5.15;1.65;;;;;;;9.31;100.00;101241.88;5208236;28;20029;-81
2022/12/26 07:52:03;;;;;;;6.05;2.72;;;;;;;9.28;100.00;101248.38;5208554;28;20053;-81
2022/12/26 07:54:34;;;;;;;5.65;1.90;;;;;;;9.46;100.00;101253.78;5194643;28;20021;-84
2022/12/26 07:57:07;;;;;;;7.00;2.05;;;;;;;9.50;100.00;101257.88;5206687;28;20060;-81
2022/12/26 07:59:37;;;;;;;4.43;2.03;;;;;;;9.47;100.00;101254.63;5208542;28;20025;-80
2022/12/26 08:02:09;;;;;;;6.00;2.03;;;;;;;9.46;100.00;101266.34;5208153;28;20062;-80
2022/12/26 08:04:40;;;;;;;7.20;3.70;;;;;;;9.44;100.00;101268.31;5209243;28;20021;-82
2022/12/26 08:07:11;;;;;;;6.63;3.38;;;;;;;9.43;100.00;101259.44;5207023;28;20479;-82
2022/12/26 08:09:43;;;;;;;5.03;1.50;;;;;;;9.39;100.00;101249.16;5208332;28;20371;-82
2022/12/26 08:12:14;;;;;;;6.07;1.80;;;;;;;9.34;100.00;101255.00;5207545;28;20017;-82
2022/12/26 08:14:44;;;;;;;7.20;1.92;;;;;;;9.27;100.00;101254.72;5211545;28;20524;-82
2022/12/26 08:17:15;;;;;;;4.25;1.60;;;;;;;9.22;100.00;101253.47;5198488;28;20436;-82
2022/12/26 08:19:46;;;;;;;4.55;1.80;;;;;;;9.18;100.00;101262.78;5218854;28;20630;-82
2022/12/26 08:22:16;;;;;;;7.25;1.70;;;;;;;9.12;100.00;101261.53;5211420;28;20025;-82
2022/12/26 08:24:47;;;;;;;8.18;2.10;;;;;;;9.14;100.00;101261.41;5211947;28;20014;-82
2022/12/26 08:27:18;;;;;;;5.53;1.90;;;;;;;9.13;100.00;101265.06;5212135;28;20382;-82
2022/12/26 08:29:48;;;;;;;6.22;1.70;;;;;;;9.32;100.00;101265.81;5210635;28;20407;-82
2022/12/26 08:32:19;;;;;;;6.05;2.45;;;;;;;9.40;100.00;101257.06;5211341;28;20079;-83
2022/12/26 08:34:49;;;;;;;7.88;1.65;;;;;;;9.45;100.00;101251.28;5197796;28;20457;-83
2022/12/26 08:37:20;;;;;;;6.60;1.70;;;;;;;9.48;100.00;101273.22;5210668;28;20025;-84
2022/12/26 08:39:52;;;;;;;6.80;1.98;;;;;;;9.44;100.00;101263.81;5210926;28;20216;-81
2022/12/26 08:42:23;;;;;;;7.57;1.70;;;;;;;9.41;100.00;101260.59;5211528;28;20051;-81
2022/12/26 08:44:53;;;;;;;3.25;1.40;;;;;;;9.42;100.00;101271.13;5210121;28;20454;-81
2022/12/26 08:47:26;;;;;;;10.10;4.07;;;;;;;9.46;100.00;101266.34;5209020;28;20021;-81
2022/12/26 08:49:56;;;;;;;4.53;1.80;;;;;;;9.49;100.00;101276.78;5210755;28;20140;-80
2022/12/26 08:52:26;;;;;;;6.35;1.67;;;;;;;9.47;100.00;101274.22;5210995;28;20057;-81
2022/12/26 08:54:57;;;;;;;1.92;1.30;;;;;;;9.53;100.00;101262.06;5209094;28;20039;-81
2022/12/26 08:57:28;;;;;;;7.43;2.13;;;;;;;9.57;100.00;101268.81;5209731;28;20031;-80
2022/12/26 08:59:58;;;;;;;7.05;1.55;;;;;;;9.66;100.00;101278.63;5209482;28;20022;-80
2022/12/26 09:02:29;;;;;;;5.47;1.50;;;;;;;9.67;100.00;101290.19;5210632;28;20022;-81
2022/12/26 09:04:59;;;;;;;5.10;1.83;;;;;;;9.68;100.00;101313.31;5210750;28;20018;-80
2022/12/26 09:07:30;;;;;;;6.07;1.70;;;;;;;9.80;100.00;101322.84;5210083;28;20045;-80
2022/12/26 09:10:00;;;;;;;6.68;2.45;;;;;;;9.81;100.00;101327.19;5210364;28;20044;-80
2022/12/26 09:12:31;;;;;;;5.05;1.30;;;;;;;9.80;100.00;101323.69;5209123;28;20033;-81
2022/12/26 09:15:01;;;;;;;4.28;1.33;;;;;;;9.79;100.00;101326.53;5205152;28;20029;-81
2022/12/26 09:17:32;;;;;;;4.55;1.45;;;;;;;9.79;100.00;101324.69;5204037;28;20033;-81
2022/12/26 09:20:02;;;;;;;6.05;1.70;;;;;;;9.88;100.00;101330.13;5213733;28;20025;-80
2022/12/26 09:22:51;;;;;;;7.93;2.15;;;;;;;9.94;100.00;101326.84;5204092;28;20048;-80
2022/12/26 09:25:23;;;;;;;11.88;2.10;;;;;;;9.96;100.00;101324.88;5203023;28;20049;-81
2022/12/26 09:27:54;;;;;;;5.80;1.90;;;;;;;9.93;100.00;101334.03;5204115;28;20031;-81
2022/12/26 09:30:24;;;;;;;7.63;2.00;;;;;;;9.97;100.00;101350.66;5203769;28;20021;-80
2022/12/26 09:32:55;;;;;;;8.25;2.20;;;;;;;9.98;100.00;101355.03;5202526;28;20571;-81
2022/12/26 09:35:25;;;;;;;12.13;2.90;;;;;;;10.02;100.00;101362.63;5194562;28;20026;-80
2022/12/26 09:37:56;;;;;;;3.38;1.33;;;;;;;10.01;100.00;101368.16;5204835;28;20037;-83
2022/12/26 09:40:32;;;;;;;5.72;1.30;;;;;;;10.02;100.00;101376.03;5205832;28;20025;-79
2022/12/26 09:43:20;;;;;;;5.72;1.95;;;;;;;10.05;100.00;101386.47;5204354;28;20033;-81
2022/12/26 09:46:30;;;;;;;12.15;4.10;;;;;;;10.07;100.00;101388.97;5204971;28;20064;-82
2022/12/26 09:49:20;;;;;;;7.05;1.63;;;;;;;10.03;100.00;101387.59;5152854;28;20037;-81
2022/12/26 09:51:55;;;;;;;7.57;1.50;;;;;;;9.98;100.00;101390.72;5204188;28;20556;-82
2022/12/26 09:54:25;;;;;;;;;;;;;;;9.93;100.00;101393.00;5205908;28;20397;-82
2022/12/26 09:56:58;;;;;;;3.35;1.40;;;;;;;9.90;100.00;101387.94;5204085;28;19909;-82
2022/12/26 09:59:33;;;;;;;32.63;16.45;;;;;;;9.99;100.00;101388.88;5192563;28;20120;-81
2022/12/26 10:02:09;;;;;;;29.45;15.13;;;;;;;9.99;100.00;101402.28;5204977;28;20486;-81
2022/12/26 10:04:40;;;;;;;11.30;5.82;;;;;;;10.00;100.00;101394.09;5204126;28;20025;-81
2022/12/26 10:07:39;;;;;;;9.18;2.00;;;;;;;9.96;100.00;101408.78;5205361;28;20029;-81
2022/12/26 10:10:22;;;;;;;9.05;1.90;;;;;;;9.99;100.00;101410.31;5205812;28;20025;-81
2022/12/26 10:13:22;;;;;;;17.67;7.45;;;;;;;10.02;100.00;101407.34;5204799;28;20032;-81
2022/12/26 10:16:07;;;;;;;12.82;8.40;;;;;;;10.03;100.00;101409.88;5205977;28;20029;-81
2022/12/26 10:18:49;;;;;;;9.98;2.50;;;;;;;10.12;100.00;101411.66;5204985;28;20033;-82
2022/12/26 10:21:25;;;;;;;7.95;1.95;;;;;;;10.12;100.00;101411.66;5210658;28;20029;-82
2022/12/26 10:24:01;;;;;;;7.57;2.67;;;;;;;10.16;100.00;101419.41;5203972;28;20033;-80
2022/12/26 10:26:36;;;;;;;8.55;2.15;;;;;;;10.11;100.00;101409.97;5202888;28;20234;-81
2022/12/26 10:29:07;;;;;;;6.45;1.90;;;;;;;10.00;100.00;101414.72;5204330;28;20094;-81
2022/12/26 10:31:46;;;;;;;6.40;2.13;;;;;;;9.99;100.00;101418.34;5203425;28;20482;-81
2022/12/26 10:34:31;;;;;;;5.93;2.95;;;;;;;9.94;100.00;101421.50;5204046;28;20064;-81
2022/12/26 10:37:39;;;;;;;8.90;3.55;;;;;;;9.95;100.00;101423.19;5203191;28;20037;-82
2022/12/26 10:40:37;;;;;;;5.10;2.17;;;;;;;9.98;100.00;101424.72;5202703;28;20083;-81
2022/12/26 10:43:27;;;;;;;13.15;4.50;;;;;;;10.05;100.00;101425.84;5203923;28;20021;-81
2022/12/26 10:46:16;;;;;;;3.78;1.90;;;;;;;10.05;100.00;101423.16;5203192;28;20036;-82
2022/12/26 10:48:47;;;;;;;6.63;2.42;;;;;;;10.02;100.00;101429.63;5204841;28;20072;-81
2022/12/26 10:51:18;;;;;;;5.28;1.77;;;;;;;9.99;100.00;101426.41;5205476;28;20052;-81
2022/12/26 10:53:51;;;;;;;3.40;1.90;;;;;;;10.01;100.00;101432.47;5205931;28;20082;-81
2022/12/26 10:56:24;;;;;;;14.02;2.60;;;;;;;10.00;100.00;101447.72;5203486;28;20029;-81
2022/12/26 10:59:02;;;;;;;6.60;1.20;;;;;;;9.77;100.00;101457.94;5203069;28;20037;-81
2022/12/26 11:01:36;;;;;;;6.68;1.27;;;;;;;9.44;100.00;101462.00;5203258;28;20112;-81
2022/12/26 11:04:24;;;;;;;5.78;1.10;;;;;;;9.17;100.00;101462.72;5205650;28;20398;-81
2022/12/26 11:06:55;;;;;;;4.75;1.13;;;;;;;9.08;100.00;101479.63;5202922;28;20025;-82
2022/12/26 11:09:44;;;;;;;8.27;1.58;;;;;;;8.93;100.00;101473.84;5204707;28;20383;-81
2022/12/26 11:12:21;;;;;;;11.68;1.50;;;;;;;8.93;100.00;101484.56;5203820;28;20025;-81
2022/12/26 11:14:58;;;;;;;6.80;1.10;;;;;;;8.98;100.00;101487.66;5205164;28;20026;-81
2022/12/26 11:17:32;;;;;;;4.32;1.30;;;;;;;9.04;100.00;101479.09;5203518;28;20021;-81
2022/12/26 11:20:15;;;;;;;5.75;1.33;;;;;;;9.05;100.00;101493.31;5214195;28;20033;-81
2022/12/26 11:22:45;;;;;;;26.13;13.40;;;;;;;9.03;100.00;101493.44;5204355;28;20037;-81
2022/12/26 11:25:22;;;;;;;56.47;30.58;;;;;;;9.00;100.00;101488.38;5204323;28;20027;-81
2022/12/26 11:27:58;;;;;;;7.88;1.55;;;;;;;9.00;100.00;101499.09;5204380;28;20079;-81
2022/12/26 11:30:36;;;;;;;10.52;2.95;;;;;;;8.96;100.00;101497.66;5205157;28;20234;-81
2022/12/26 11:33:23;;;;;;;8.45;1.95;;;;;;;8.94;100.00;101502.31;5204372;28;20072;-81
2022/12/26 11:36:00;;;;;;;7.75;1.85;;;;;;;8.94;100.00;101506.84;5205262;28;20025;-81
2022/12/26 11:38:38;;;;;;;8.80;1.92;;;;;;;8.85;100.00;101515.69;5205511;28;20037;-81
2022/12/26 11:41:30;;;;;;;11.98;2.05;;;;;;;8.81;100.00;101517.78;5205646;28;20021;-81
2022/12/26 11:44:15;;;;;;;14.35;2.30;;;;;;;8.75;100.00;101519.19;5206024;28;20036;-81
2022/12/26 11:46:58;;;;;;;8.68;2.55;;;;;;;8.73;100.00;101515.78;5206812;28;20299;-82
2022/12/26 11:49:34;;;;;;;12.40;3.08;;;;;;;8.71;100.00;101525.78;5209936;28;20029;-82
2022/12/26 11:52:23;;;;;;;;;;;;;;;8.70;100.00;101526.78;5209032;28;20209;-82
2022/12/26 11:54:53;;;;;;;7.18;1.25;;;;;;;8.77;100.00;101535.09;5212537;28;20011;-81
2022/12/26 11:57:29;;;;;;;15.50;2.22;;;;;;;8.80;100.00;101542.84;5211117;28;20061;-81
2022/12/26 12:00:20;;;;;;;6.85;2.20;;;;;;;8.88;100.00;101551.03;5211360;28;20083;-82
2022/12/26 12:02:51;;;;;;;7.57;1.60;;;;;;;8.86;100.00;101549.47;5212540;28;20026;-82
2022/12/26 12:05:33;;;;;;;11.75;2.00;;;;;;;8.84;100.00;101554.97;5212880;28;20110;-81
2022/12/26 12:08:29;;;;;;;10.30;1.98;;;;;;;8.67;100.00;101555.63;5211830;28;20063;-82
2022/12/26 12:11:17;;;;;;;6.75;1.92;;;;;;;8.61;100.00;101548.16;5201319;28;20108;-81
2022/12/26 12:14:00;;;;;;;17.77;5.55;;;;;;;8.50;100.00;101557.97;5212728;28;20041;-82
2022/12/26 12:16:39;;;;;;;20.20;2.95;;;;;;;8.42;100.00;101546.25;5209613;28;20048;-82
2022/12/26 12:19:24;;;;;;;9.40;2.00;;;;;;;8.53;100.00;101552.38;5216169;28;20029;-82
2022/12/26 12:22:22;;;;;;;9.05;2.00;;;;;;;8.54;100.00;101547.88;5213956;28;20029;-81
2022/12/26 12:24:58;;;;;;;15.18;2.92;;;;;;;8.54;100.00;101563.91;5211423;28;20029;-82
2022/12/26 12:27:46;;;;;;;15.18;2.38;;;;;;;8.42;100.00;101570.31;5213048;28;20025;-81
2022/12/26 12:30:23;;;;;;;9.35;2.13;;;;;;;8.39;100.00;101571.44;5212631;28;20044;-80
2022/12/26 12:33:09;;;;;;;6.68;1.90;;;;;;;8.42;100.00;101560.47;5211446;28;20018;-83
2022/12/26 12:35:39;;;;;;;17.67;3.58;;;;;;;8.43;100.00;101566.66;5211164;28;20030;-81
2022/12/26 12:38:30;;;;;;;13.27;1.75;;;;;;;8.30;100.00;101557.03;5211353;28;20033;-82
2022/12/26 12:41:13;;;;;;;12.23;4.80;;;;;;;8.34;100.00;101570.97;5211707;28;20181;-80
2022/12/26 12:44:01;;;;;;;15.45;2.25;;;;;;;8.31;100.00;101585.44;5212047;28;20025;-80
2022/12/26 12:46:56;;;;;;;12.50;2.92;;;;;;;8.30;100.00;101572.22;5210075;28;20033;-80
2022/12/26 12:49:54;;;;;;;17.92;4.82;;;;;;;8.27;100.00;101578.66;5211268;28;20453;-80
2022/12/26 12:52:49;;;;;;;10.70;1.63;;;;;;;8.27;100.00;101584.00;5210438;28;20486;-82
2022/12/26 12:55:26;;;;;;;15.43;3.20;;;;;;;8.17;100.00;101599.16;5210355;28;20322;-79
2022/12/26 12:58:05;;;;;;;13.43;1.80;;;;;;;8.12;100.00;101588.00;5211395;28;20363;-79
2022/12/26 13:00:47;;;;;;;16.75;3.35;;;;;;;8.08;100.00;101575.88;5210253;28;20041;-79
2022/12/26 13:03:36;;;;;;;12.68;1.70;;;;;;;8.01;100.00;101569.38;5207804;28;20040;-79
2022/12/26 13:06:15;;;;;;;11.80;1.60;;;;;;;7.96;100.00;101575.13;5195248;28;20060;-79
2022/12/26 13:08:52;;;;;;;9.18;1.40;;;;;;;7.96;100.00;101571.59;5208545;28;20083;-79
2022/12/26 13:11:35;;;;;;;9.25;1.33;;;;;;;7.96;100.00;101579.63;5207264;28;20490;-79
2022/12/26 13:14:18;;;;;;;4.22;1.17;;;;;;;8.01;100.00;101572.91;5207014;28;20029;-79
2022/12/26 13:16:56;;;;;;;6.18;1.33;;;;;;;7.99;100.00;101574.03;5208281;28;20130;-79
2022/12/26 13:19:43;;;;;;;15.93;1.85;;;;;;;7.94;100.00;101579.75;5214627;28;20100;-79
2022/12/26 13:22:24;;;;;;;8.75;1.60;;;;;;;7.90;100.00;101588.16;5196034;28;20045;-79
2022/12/26 13:24:59;;;;;;;5.40;1.10;;;;;;;7.84;100.00;101588.69;5207995;28;20029;-79
2022/12/26 13:27:35;;;;;;;7.07;1.20;;;;;;;7.87;100.00;101586.59;5208093;28;20017;-79
2022/12/26 13:30:12;;;;;;;6.03;2.00;;;;;;;7.79;100.00;101576.56;5207719;28;20036;-79
2022/12/26 13:32:43;;;;;;;10.70;1.50;;;;;;;7.77;100.00;101588.34;5205910;28;20076;-79
2022/12/26 13:36:00;;;;;;;7.85;0.93;;;;;;;7.64;100.00;101580.53;5194780;28;20029;-79
2022/12/26 13:39:00;;;;;;;7.10;1.30;;;;;;;7.55;100.00;101596.50;5180308;28;20036;-79
2022/12/26 13:44:40;;;;;;;7.85;1.73;;;;;;;7.50;100.00;101610.22;5164474;28;20030;-79
2022/12/26 13:47:31;;;;;;;7.97;2.05;;;;;;;7.47;100.00;101602.47;5164671;28;20097;-79
2022/12/26 13:50:39;;;;;;;5.45;1.45;;;;;;;7.45;100.00;101625.78;5193692;28;20069;-79
2022/12/26 13:53:25;;;;;;;8.88;2.50;;;;;;;7.33;100.00;101626.78;5195214;28;20037;-78
2022/12/26 13:56:13;;;;;;;9.40;1.20;;;;;;;7.28;100.00;101632.53;5205688;28;20392;-79
2022/12/26 13:59:00;;;;;;;7.15;1.23;;;;;;;7.27;100.00;101641.47;5206753;28;20044;-79
2022/12/26 14:01:39;;;;;;;8.93;1.58;;;;;;;7.34;100.00;101648.03;5206722;28;20024;-79
2022/12/26 14:04:33;;;;;;;4.40;1.40;;;;;;;7.29;100.00;101650.22;5206590;28;20132;-79
2022/12/26 14:07:22;;;;;;;4.65;1.50;;;;;;;7.22;100.00;101659.69;5206914;28;20017;-80
2022/12/26 14:10:20;;;;;;;11.05;2.42;;;;;;;7.17;100.00;101676.06;5205653;28;20097;-79
2022/12/26 14:13:00;;;;;;;10.65;1.48;;;;;;;7.11;100.00;101671.22;5205925;28;20104;-79
2022/12/26 14:15:52;;;;;;;7.80;1.85;;;;;;;7.05;100.00;101676.22;5205768;28;20041;-80
2022/12/26 14:18:44;;;;;;;6.20;1.38;;;;;;;6.98;100.00;101679.38;5206331;28;20107;-80